createdAt,value
2022-12-25T00:01:12.978Z,6.86
2022-12-25T00:03:40.072Z,6.86
2022-12-25T00:06:07.274Z,6.86
2022-12-25T00:08:35.086Z,6.86
2022-12-25T00:11:08.193Z,6.86
2022-12-25T00:13:34.994Z,6.83
2022-12-25T00:16:10.035Z,6.83
2022-12-25T00:18:36.576Z,6.80
2022-12-25T00:21:06.479Z,6.78
2022-12-25T00:23:34.843Z,6.76
2022-12-25T00:26:05.956Z,6.76
2022-12-25T00:28:32.842Z,6.78
2022-12-25T00:30:59.499Z,6.78
2022-12-25T00:33:27.301Z,6.79
2022-12-25T00:35:58.716Z,6.79
2022-12-25T00:38:26.222Z,6.77
2022-12-25T00:40:53.148Z,6.76
2022-12-25T00:43:20.144Z,6.75
2022-12-25T00:46:01.883Z,6.73
2022-12-25T00:48:29.811Z,6.72
2022-12-25T00:51:01.834Z,6.71
2022-12-25T00:53:29.435Z,6.71
2022-12-25T00:56:05.277Z,6.73
2022-12-25T00:58:33.605Z,6.73
2022-12-25T01:01:00.452Z,6.73
2022-12-25T01:03:27.555Z,6.72
2022-12-25T01:06:00.670Z,6.74
2022-12-25T01:08:29.557Z,6.81
2022-12-25T01:10:57.510Z,6.85
2022-12-25T01:13:26.266Z,6.89
2022-12-25T01:15:54.338Z,6.96
2022-12-25T01:18:23.481Z,7.04
2022-12-25T01:20:50.856Z,7.13
2022-12-25T01:23:17.633Z,7.19
2022-12-25T01:25:44.307Z,7.26
2022-12-25T01:28:11.016Z,7.33
2022-12-25T01:30:37.683Z,7.37
2022-12-25T01:33:04.470Z,7.38
2022-12-25T01:35:31.394Z,7.40
2022-12-25T01:37:57.970Z,7.45
2022-12-25T01:40:24.774Z,7.52
2022-12-25T01:42:51.557Z,7.55
2022-12-25T01:45:25.250Z,7.57
2022-12-25T01:47:52.413Z,7.58
2022-12-25T01:50:20.153Z,7.61
2022-12-25T01:52:49.322Z,7.63
2022-12-25T01:55:16.613Z,7.65
2022-12-25T01:57:44.239Z,7.71
2022-12-25T02:00:12.533Z,7.75
2022-12-25T02:02:41.631Z,7.76
2022-12-25T02:05:15.799Z,7.79
2022-12-25T02:07:43.077Z,7.83
2022-12-25T02:10:12.405Z,7.88
2022-12-25T02:12:40.169Z,7.89
2022-12-25T02:15:16.340Z,7.92
2022-12-25T02:17:51.204Z,7.98
2022-12-25T02:20:36.457Z,7.98
2022-12-25T02:23:21.017Z,8.01
2022-12-25T02:26:15.616Z,8.03
2022-12-25T02:28:55.102Z,8.04
2022-12-25T02:31:51.158Z,8.07
2022-12-25T02:34:26.367Z,8.07
2022-12-25T02:37:13.043Z,8.07
2022-12-25T02:39:57.949Z,8.08
2022-12-25T02:43:00.312Z,8.09
2022-12-25T02:45:59.327Z,8.09
2022-12-25T02:48:50.269Z,8.11
2022-12-25T02:51:38.462Z,8.13
2022-12-25T02:54:31.113Z,8.14
2022-12-25T02:57:18.705Z,8.17
2022-12-25T03:00:08.171Z,8.19
2022-12-25T03:02:53.783Z,8.21
2022-12-25T03:05:43.862Z,8.23
2022-12-25T03:08:34.787Z,8.25
2022-12-25T03:11:28.303Z,8.25
2022-12-25T03:14:21.786Z,8.26
2022-12-25T03:16:53.101Z,8.29
2022-12-25T03:19:46.028Z,8.31
2022-12-25T03:22:38.090Z,8.31
2022-12-25T03:25:23.510Z,8.31
2022-12-25T03:27:54.286Z,8.30
2022-12-25T03:30:42.377Z,8.29
2022-12-25T03:33:44.419Z,8.30
2022-12-25T03:36:32.411Z,8.30
2022-12-25T03:39:14.975Z,8.32
2022-12-25T03:42:06.155Z,8.33
2022-12-25T03:44:53.629Z,8.36
2022-12-25T03:47:37.217Z,8.39
2022-12-25T03:50:38.751Z,8.42
2022-12-25T03:53:30.776Z,8.43
2022-12-25T03:56:17.691Z,8.44
2022-12-25T03:59:21.064Z,8.45
2022-12-25T04:02:09.488Z,8.46
2022-12-25T04:04:55.097Z,8.47
2022-12-25T04:07:40.550Z,8.47
2022-12-25T04:10:27.107Z,8.51
2022-12-25T04:13:12.590Z,8.53
2022-12-25T04:15:58.281Z,8.54
2022-12-25T04:18:43.720Z,8.56
2022-12-25T04:21:29.244Z,8.58
2022-12-25T04:24:14.448Z,8.61
2022-12-25T04:27:00.121Z,8.62
2022-12-25T04:29:45.417Z,8.64
2022-12-25T04:32:30.919Z,8.65
2022-12-25T04:35:16.137Z,8.67
2022-12-25T04:37:42.742Z,8.69
2022-12-25T04:40:10.033Z,8.69
2022-12-25T04:42:36.648Z,8.71
2022-12-25T04:45:03.713Z,8.73
2022-12-25T04:47:30.417Z,8.76
2022-12-25T04:49:57.097Z,8.75
2022-12-25T04:52:23.823Z,8.75
2022-12-25T04:54:50.469Z,8.77
2022-12-25T04:57:17.299Z,8.78
2022-12-25T04:59:43.940Z,8.77
2022-12-25T05:02:10.692Z,8.79
2022-12-25T05:04:37.434Z,8.80
2022-12-25T05:07:04.024Z,8.82
2022-12-25T05:09:30.735Z,8.82
2022-12-25T05:11:58.597Z,8.84
2022-12-25T05:14:25.184Z,8.85
2022-12-25T05:16:52.051Z,8.87
2022-12-25T05:19:18.689Z,8.85
2022-12-25T05:21:45.557Z,8.86
2022-12-25T05:24:12.339Z,8.86
2022-12-25T05:26:40.156Z,8.86
2022-12-25T05:29:06.734Z,8.87
2022-12-25T05:31:33.491Z,8.86
2022-12-25T05:34:00.334Z,8.88
2022-12-25T05:36:27.332Z,8.88
2022-12-25T05:38:54.390Z,8.88
2022-12-25T05:41:21.002Z,8.90
2022-12-25T05:43:47.806Z,8.91
2022-12-25T05:46:14.975Z,8.90
2022-12-25T05:48:43.808Z,8.92
2022-12-25T05:51:12.848Z,8.92
2022-12-25T05:53:42.296Z,8.93
2022-12-25T05:56:09.742Z,8.94
2022-12-25T05:58:38.346Z,8.93
2022-12-25T06:01:11.095Z,8.94
2022-12-25T06:03:37.808Z,8.95
2022-12-25T06:06:04.985Z,8.95
2022-12-25T06:08:31.656Z,8.95
2022-12-25T06:10:58.689Z,8.93
2022-12-25T06:13:25.351Z,8.93
2022-12-25T06:15:52.063Z,8.92
2022-12-25T06:18:18.755Z,8.91
2022-12-25T06:20:45.407Z,8.90
2022-12-25T06:23:12.950Z,8.89
2022-12-25T06:25:40.406Z,8.89
2022-12-25T06:28:07.700Z,8.89
2022-12-25T06:30:34.726Z,8.87
2022-12-25T06:33:03.408Z,8.84
2022-12-25T06:35:29.952Z,8.83
2022-12-25T06:37:56.815Z,8.82
2022-12-25T06:40:23.431Z,8.81
2022-12-25T06:42:52.041Z,8.82
2022-12-25T06:45:18.633Z,8.82
2022-12-25T06:47:46.650Z,8.82
2022-12-25T06:50:13.522Z,8.84
2022-12-25T06:52:40.103Z,8.85
2022-12-25T06:55:07.238Z,8.87
2022-12-25T06:57:33.819Z,8.87
2022-12-25T07:00:00.482Z,8.88
2022-12-25T07:02:27.450Z,8.88
2022-12-25T07:04:54.648Z,8.89
2022-12-25T07:07:23.135Z,8.89
2022-12-25T07:09:49.850Z,8.91
2022-12-25T07:12:19.585Z,8.93
2022-12-25T07:14:50.206Z,8.94
2022-12-25T07:17:18.126Z,8.96
2022-12-25T07:19:46.647Z,8.97
2022-12-25T07:22:14.150Z,8.99
2022-12-25T07:24:40.888Z,8.99
2022-12-25T07:27:08.427Z,9.00
2022-12-25T07:29:35.560Z,9.04
2022-12-25T07:32:02.434Z,9.03
2022-12-25T07:34:29.088Z,9.05
2022-12-25T07:36:55.998Z,9.06
2022-12-25T07:39:24.027Z,9.07
2022-12-25T07:41:51.395Z,9.09
2022-12-25T07:44:18.417Z,9.10
2022-12-25T07:46:45.220Z,9.10
2022-12-25T07:49:12.634Z,9.12
2022-12-25T07:51:39.368Z,9.12
2022-12-25T07:54:06.282Z,9.13
2022-12-25T07:56:33.031Z,9.14
2022-12-25T07:58:59.853Z,9.15
2022-12-25T08:01:27.858Z,9.16
2022-12-25T08:03:59.608Z,9.17
2022-12-25T08:06:34.955Z,9.18
2022-12-25T08:09:10.919Z,9.19
2022-12-25T08:11:38.253Z,9.22
2022-12-25T08:14:09.074Z,9.22
2022-12-25T08:16:36.186Z,9.24
2022-12-25T08:19:22.550Z,9.24
2022-12-25T08:21:49.091Z,9.26
2022-12-25T08:24:15.711Z,9.27
2022-12-25T08:26:43.373Z,9.28
2022-12-25T08:29:10.093Z,9.29
2022-12-25T08:31:42.495Z,9.30
2022-12-25T08:34:13.823Z,9.31
2022-12-25T08:36:41.518Z,9.32
2022-12-25T08:39:10.377Z,9.33
2022-12-25T08:41:37.125Z,9.33
2022-12-25T08:44:04.840Z,9.35
2022-12-25T08:46:31.924Z,9.34
2022-12-25T08:48:58.757Z,9.36
2022-12-25T08:51:26.519Z,9.39
2022-12-25T08:53:57.889Z,9.39
2022-12-25T08:56:24.609Z,9.39
2022-12-25T08:58:51.251Z,9.40
2022-12-25T09:01:18.128Z,9.42
2022-12-25T09:03:45.418Z,9.44
2022-12-25T09:06:15.490Z,9.44
2022-12-25T09:08:48.719Z,9.47
2022-12-25T09:11:17.580Z,9.47
2022-12-25T09:13:44.302Z,9.48
2022-12-25T09:16:14.262Z,9.50
2022-12-25T09:18:41.373Z,9.50
2022-12-25T09:21:11.242Z,9.52
2022-12-25T09:23:38.023Z,9.53
2022-12-25T09:26:07.208Z,9.54
2022-12-25T09:28:34.023Z,9.55
2022-12-25T09:31:01.264Z,9.57
2022-12-25T09:33:29.202Z,9.59
2022-12-25T09:36:02.058Z,9.59
2022-12-25T09:38:29.736Z,9.60
2022-12-25T09:41:11.720Z,9.60
2022-12-25T09:43:53.045Z,9.63
2022-12-25T09:46:23.529Z,9.62
2022-12-25T09:49:15.192Z,9.65
2022-12-25T09:51:43.955Z,9.66
2022-12-25T09:54:42.323Z,9.68
2022-12-25T09:57:12.775Z,9.70
2022-12-25T09:59:40.183Z,9.71
2022-12-25T10:02:35.559Z,9.74
2022-12-25T10:05:16.546Z,9.75
2022-12-25T10:08:00.650Z,9.77
2022-12-25T10:10:52.115Z,9.76
2022-12-25T10:13:27.605Z,9.75
2022-12-25T10:16:10.946Z,9.75
2022-12-25T10:19:11.817Z,9.75
2022-12-25T10:21:38.775Z,9.75
2022-12-25T10:24:23.634Z,9.75
2022-12-25T10:26:53.331Z,9.75
2022-12-25T10:29:20.234Z,9.75
2022-12-25T10:31:49.770Z,9.76
2022-12-25T10:34:18.147Z,9.76
2022-12-25T10:36:46.339Z,9.76
2022-12-25T10:39:22.388Z,9.77
2022-12-25T10:42:07.769Z,9.78
2022-12-25T10:44:35.089Z,9.79
2022-12-25T10:47:04.330Z,9.79
2022-12-25T10:49:36.021Z,9.77
2022-12-25T10:52:04.109Z,9.77
2022-12-25T10:54:35.111Z,9.77
2022-12-25T10:57:14.797Z,9.78
2022-12-25T10:59:52.789Z,9.79
2022-12-25T11:02:27.871Z,9.78
2022-12-25T11:05:06.365Z,9.78
2022-12-25T11:07:35.187Z,9.78
2022-12-25T11:10:07.181Z,9.78
2022-12-25T11:12:42.161Z,9.78
2022-12-25T11:15:35.918Z,9.77
2022-12-25T11:18:30.044Z,9.75
2022-12-25T11:21:00.354Z,9.76
2022-12-25T11:23:29.897Z,9.75
2022-12-25T11:25:59.065Z,9.75
2022-12-25T11:28:27.248Z,9.75
2022-12-25T11:31:01.592Z,9.75
2022-12-25T11:33:39.692Z,9.76
2022-12-25T11:36:27.245Z,9.74
2022-12-25T11:38:55.045Z,9.74
2022-12-25T11:41:30.611Z,9.72
2022-12-25T11:44:05.149Z,9.71
2022-12-25T11:46:41.813Z,9.71
2022-12-25T11:49:16.429Z,9.71
2022-12-25T11:51:46.499Z,9.71
2022-12-25T11:54:26.655Z,9.70
2022-12-25T11:56:55.877Z,9.68
2022-12-25T11:59:38.697Z,9.70
2022-12-25T12:02:26.020Z,9.69
2022-12-25T12:05:04.603Z,9.70
2022-12-25T12:07:33.850Z,9.71
2022-12-25T12:10:27.859Z,9.72
2022-12-25T12:13:12.087Z,9.73
2022-12-25T12:15:45.186Z,9.75
2022-12-25T12:18:26.829Z,9.76
2022-12-25T12:21:02.921Z,9.78
2022-12-25T12:23:33.094Z,9.79
2022-12-25T12:26:00.595Z,9.78
2022-12-25T12:28:31.900Z,9.80
2022-12-25T12:31:03.044Z,9.81
2022-12-25T12:33:35.574Z,9.82
2022-12-25T12:36:05.045Z,9.83
2022-12-25T12:38:33.745Z,9.84
2022-12-25T12:41:02.834Z,9.85
2022-12-25T12:43:35.589Z,9.87
2022-12-25T12:46:31.041Z,9.88
2022-12-25T12:49:23.246Z,9.90
2022-12-25T12:51:50.656Z,9.89
2022-12-25T12:54:24.328Z,9.90
2022-12-25T12:57:04.788Z,9.90
2022-12-25T12:59:46.880Z,9.89
2022-12-25T13:02:58.668Z,9.89
2022-12-25T13:05:34.969Z,9.90
2022-12-25T13:08:40.436Z,9.91
2022-12-25T13:11:21.252Z,9.91
2022-12-25T13:13:50.879Z,9.92
2022-12-25T13:16:26.645Z,9.95
2022-12-25T13:18:56.287Z,9.97
2022-12-25T13:21:27.714Z,9.99
2022-12-25T13:24:06.453Z,10.01
2022-12-25T13:26:33.180Z,10.03
2022-12-25T13:29:00.005Z,10.04
2022-12-25T13:31:28.868Z,10.06
2022-12-25T13:34:20.004Z,10.07
2022-12-25T13:36:46.739Z,10.08
2022-12-25T13:39:16.709Z,10.11
2022-12-25T13:42:06.170Z,10.12
2022-12-25T13:44:41.832Z,10.12
2022-12-25T13:47:17.429Z,10.12
2022-12-25T13:49:44.485Z,10.12
2022-12-25T13:52:14.709Z,10.12
2022-12-25T13:54:53.982Z,10.11
2022-12-25T13:57:25.111Z,10.11
2022-12-25T13:59:51.768Z,10.11
2022-12-25T14:02:21.049Z,10.11
2022-12-25T14:04:47.828Z,10.11
2022-12-25T14:07:21.080Z,10.10
2022-12-25T14:09:55.206Z,10.09
2022-12-25T14:12:23.587Z,10.08
2022-12-25T14:14:53.707Z,10.09
2022-12-25T14:17:21.639Z,10.09
2022-12-25T14:20:07.605Z,10.11
2022-12-25T14:22:36.138Z,10.11
2022-12-25T14:25:03.211Z,10.11
2022-12-25T14:27:30.973Z,10.11
2022-12-25T14:30:00.542Z,10.12
2022-12-25T14:32:37.792Z,10.11
2022-12-25T14:35:04.913Z,10.11
2022-12-25T14:37:33.343Z,10.11
2022-12-25T14:40:20.309Z,10.10
2022-12-25T14:42:56.299Z,10.10
2022-12-25T14:45:32.638Z,10.08
2022-12-25T14:48:03.054Z,10.08
2022-12-25T14:50:38.733Z,10.07
2022-12-25T14:53:18.382Z,10.06
2022-12-25T14:55:54.602Z,10.06
2022-12-25T14:58:27.876Z,10.05
2022-12-25T15:00:59.926Z,10.04
2022-12-25T15:03:30.218Z,10.04
2022-12-25T15:06:05.623Z,10.04
2022-12-25T15:08:34.841Z,10.06
2022-12-25T15:11:03.215Z,10.06
2022-12-25T15:13:31.443Z,10.06
2022-12-25T15:16:16.218Z,10.07
2022-12-25T15:18:45.468Z,10.07
2022-12-25T15:21:33.821Z,10.07
2022-12-25T15:24:01.134Z,10.05
2022-12-25T15:26:30.160Z,10.06
2022-12-25T15:28:57.275Z,10.06
2022-12-25T15:31:26.998Z,10.06
2022-12-25T15:33:56.477Z,10.06
2022-12-25T15:36:24.460Z,10.06
2022-12-25T15:38:51.433Z,10.05
2022-12-25T15:41:43.961Z,10.05
2022-12-25T15:44:12.555Z,10.05
2022-12-25T15:46:39.572Z,10.03
2022-12-25T15:49:07.317Z,10.02
2022-12-25T15:51:35.482Z,10.00
2022-12-25T15:54:02.538Z,10.00
2022-12-25T15:56:29.743Z,9.99
2022-12-25T15:58:57.019Z,9.99
2022-12-25T16:01:23.883Z,9.99
2022-12-25T16:03:50.563Z,10.01
2022-12-25T16:06:18.827Z,9.99
2022-12-25T16:08:45.892Z,9.99
2022-12-25T16:11:13.047Z,9.98
2022-12-25T16:13:41.935Z,9.98
2022-12-25T16:16:08.717Z,9.97
2022-12-25T16:18:35.409Z,9.99
2022-12-25T16:21:02.784Z,10.01
2022-12-25T16:23:30.828Z,10.01
2022-12-25T16:25:57.466Z,9.99
2022-12-25T16:28:24.130Z,9.99
2022-12-25T16:30:51.019Z,9.98
2022-12-25T16:33:17.738Z,9.97
2022-12-25T16:35:45.372Z,9.96
2022-12-25T16:38:12.220Z,9.97
2022-12-25T16:40:39.346Z,9.97
2022-12-25T16:43:06.022Z,9.98
2022-12-25T16:45:39.296Z,9.99
2022-12-25T16:48:08.709Z,10.00
2022-12-25T16:50:38.402Z,10.02
2022-12-25T16:53:05.257Z,10.01
2022-12-25T16:55:33.619Z,10.02
2022-12-25T16:58:01.550Z,10.02
2022-12-25T17:00:28.454Z,10.00
2022-12-25T17:02:56.999Z,9.99
2022-12-25T17:05:24.530Z,9.97
2022-12-25T17:07:51.735Z,9.95
2022-12-25T17:10:18.532Z,9.93
2022-12-25T17:12:45.825Z,9.93
2022-12-25T17:15:12.791Z,9.94
2022-12-25T17:17:39.432Z,9.94
2022-12-25T17:20:06.979Z,9.94
2022-12-25T17:22:33.704Z,9.96
2022-12-25T17:25:00.382Z,9.95
2022-12-25T17:27:27.026Z,9.95
2022-12-25T17:29:53.640Z,9.95
2022-12-25T17:32:20.297Z,9.94
2022-12-25T17:34:47.427Z,9.92
2022-12-25T17:37:13.978Z,9.91
2022-12-25T17:39:40.698Z,9.90
2022-12-25T17:42:07.712Z,9.89
2022-12-25T17:44:34.364Z,9.87
2022-12-25T17:47:01.388Z,9.88
2022-12-25T17:49:28.152Z,9.88
2022-12-25T17:51:54.897Z,9.88
2022-12-25T17:54:21.733Z,9.89
2022-12-25T17:56:49.610Z,9.88
2022-12-25T17:59:18.773Z,9.87
2022-12-25T18:01:46.413Z,9.86
2022-12-25T18:04:13.416Z,9.86
2022-12-25T18:06:40.175Z,9.85
2022-12-25T18:09:07.465Z,9.85
2022-12-25T18:11:36.851Z,9.84
2022-12-25T18:14:05.971Z,9.83
2022-12-25T18:16:37.152Z,9.84
2022-12-25T18:19:04.677Z,9.83
2022-12-25T18:21:31.921Z,9.83
2022-12-25T18:24:00.030Z,9.82
2022-12-25T18:26:28.816Z,9.82
2022-12-25T18:28:55.888Z,9.80
2022-12-25T18:31:26.425Z,9.79
2022-12-25T18:33:54.028Z,9.79
2022-12-25T18:36:23.437Z,9.79
2022-12-25T18:38:51.564Z,9.81
2022-12-25T18:41:20.018Z,9.80
2022-12-25T18:43:53.619Z,9.82
2022-12-25T18:46:24.181Z,9.81
2022-12-25T18:48:52.290Z,9.82
2022-12-25T18:51:19.165Z,9.82
2022-12-25T18:53:46.085Z,9.82
2022-12-25T18:56:15.690Z,9.84
2022-12-25T18:58:43.142Z,9.85
2022-12-25T19:01:14.285Z,9.85
2022-12-25T19:03:44.599Z,9.86
2022-12-25T19:06:21.835Z,9.86
2022-12-25T19:08:48.790Z,9.87
2022-12-25T19:11:16.427Z,9.88
2022-12-25T19:13:43.689Z,9.89
2022-12-25T19:16:10.780Z,9.89
2022-12-25T19:18:38.753Z,9.91
2022-12-25T19:21:08.694Z,9.90
2022-12-25T19:23:35.723Z,9.92
2022-12-25T19:26:05.668Z,9.92
2022-12-25T19:28:32.471Z,9.92
2022-12-25T19:31:00.310Z,9.92
2022-12-25T19:33:26.931Z,9.92
2022-12-25T19:35:53.648Z,9.91
2022-12-25T19:38:21.407Z,9.93
2022-12-25T19:41:00.847Z,9.94
2022-12-25T19:43:33.802Z,9.95
2022-12-25T19:46:01.962Z,9.94
2022-12-25T19:48:29.665Z,9.95
2022-12-25T19:50:56.611Z,9.95
2022-12-25T19:53:23.818Z,9.95
2022-12-25T19:55:54.594Z,9.96
2022-12-25T19:58:22.553Z,9.96
2022-12-25T20:00:59.525Z,9.97
2022-12-25T20:03:27.146Z,9.97
2022-12-25T20:05:53.886Z,9.98
2022-12-25T20:08:20.519Z,9.97
2022-12-25T20:10:47.348Z,9.97
2022-12-25T20:13:14.087Z,9.97
2022-12-25T20:15:42.259Z,9.96
2022-12-25T20:18:08.869Z,9.95
2022-12-25T20:20:35.709Z,9.95
2022-12-25T20:23:02.600Z,9.96
2022-12-25T20:25:29.441Z,9.96
2022-12-25T20:27:56.229Z,9.96
2022-12-25T20:30:23.028Z,9.96
2022-12-25T20:32:50.693Z,9.96
2022-12-25T20:35:17.640Z,9.97
2022-12-25T20:37:44.863Z,9.97
2022-12-25T20:40:12.409Z,9.98
2022-12-25T20:42:39.222Z,9.98
2022-12-25T20:45:07.737Z,9.98
2022-12-25T20:47:35.190Z,9.97
2022-12-25T20:50:02.268Z,9.97
2022-12-25T20:52:28.899Z,9.96
2022-12-25T20:54:55.609Z,9.95
2022-12-25T20:57:22.381Z,9.96
2022-12-25T20:59:49.383Z,9.96
2022-12-25T21:02:34.811Z,9.95
2022-12-25T21:05:03.597Z,9.95
2022-12-25T21:07:30.231Z,9.95
2022-12-25T21:09:56.970Z,9.96
2022-12-25T21:12:23.743Z,9.97
2022-12-25T21:14:50.418Z,9.96
2022-12-25T21:17:17.513Z,9.96
2022-12-25T21:19:44.315Z,9.94
2022-12-25T21:22:11.089Z,9.94
2022-12-25T21:24:37.825Z,9.93
2022-12-25T21:27:04.668Z,9.93
2022-12-25T21:29:31.428Z,9.93
2022-12-25T21:32:16.694Z,9.93
2022-12-25T21:34:43.443Z,9.89
2022-12-25T21:37:10.134Z,9.89
2022-12-25T21:39:36.936Z,9.89
2022-12-25T21:42:04.784Z,9.90
2022-12-25T21:44:50.614Z,9.93
2022-12-25T21:47:17.282Z,9.93
2022-12-25T21:50:02.979Z,9.94
2022-12-25T21:52:29.689Z,9.93
2022-12-25T21:54:56.424Z,9.92
2022-12-25T21:57:24.816Z,9.93
2022-12-25T21:59:51.558Z,9.94
2022-12-25T22:02:18.462Z,9.93
2022-12-25T22:04:45.294Z,9.92
2022-12-25T22:07:19.180Z,9.91
2022-12-25T22:09:47.747Z,9.90
2022-12-25T22:12:34.773Z,9.88
2022-12-25T22:15:03.911Z,9.88
2022-12-25T22:18:00.484Z,9.90
2022-12-25T22:20:36.627Z,9.91
2022-12-25T22:23:04.131Z,9.90
2022-12-25T22:25:30.886Z,9.90
2022-12-25T22:27:57.801Z,9.89
2022-12-25T22:30:28.390Z,9.87
2022-12-25T22:32:56.025Z,9.88
2022-12-25T22:35:23.511Z,9.88
2022-12-25T22:37:50.500Z,9.89
2022-12-25T22:40:19.019Z,9.88
2022-12-25T22:42:45.938Z,9.87
2022-12-25T22:45:13.084Z,9.87
2022-12-25T22:47:40.628Z,9.87
2022-12-25T22:50:08.349Z,9.86
2022-12-25T22:52:37.259Z,9.84
2022-12-25T22:55:05.259Z,9.82
2022-12-25T22:57:31.907Z,9.83
2022-12-25T23:00:02.444Z,9.83
2022-12-25T23:02:29.385Z,9.84
2022-12-25T23:04:56.162Z,9.84
2022-12-25T23:07:22.948Z,9.83
2022-12-25T23:09:49.702Z,9.84
2022-12-25T23:12:34.961Z,9.82
2022-12-25T23:15:01.667Z,9.82
2022-12-25T23:17:47.326Z,9.80
2022-12-25T23:20:33.796Z,9.82
2022-12-25T23:23:20.058Z,9.81
2022-12-25T23:26:05.564Z,9.81
2022-12-25T23:28:52.188Z,9.81
2022-12-25T23:31:22.605Z,9.79
2022-12-25T23:33:50.290Z,9.81
2022-12-25T23:36:16.933Z,9.81
2022-12-25T23:38:43.730Z,9.82
2022-12-25T23:41:10.431Z,9.81
2022-12-25T23:43:37.109Z,9.82
2022-12-25T23:46:03.836Z,9.82
2022-12-25T23:48:30.717Z,9.82
2022-12-25T23:51:03.789Z,9.80
2022-12-25T23:53:31.043Z,9.80
2022-12-25T23:55:57.976Z,9.80
2022-12-25T23:58:27.289Z,9.78
